Terminal Aerodrome Forecast
Issued by NWS

Home | Current Version | Previous Version | Text Only | Print | Product List | Glossary On
Versions: 1 2 3 4 5 6 7 8 9 10 11 12 13 14 15 16 17
000
FTUS43 KABR 311754 CCA
TAFPIR
TAF COR
KPIR 311754Z 3118/0118 VRB06KT P6SM SKC
     FM010200 VRB05KT P6SM SKC
     FM010800 15006KT P6SM BKN110
     FM011600 18012KT P6SM SKC=

USA.gov is the U.S. government's official web portal to all federal, state and local government web resources and services.